Aviation Digital Data Service (ADDS)

Output produced by METARs form (0721 UTC 26 March 2017)
found at http://aviationweather.gov/adds/metars/
 
KGSO 260540Z 2606/2706 19007KT P6SM FEW060 SCT250 
     TEMPO 2615/2617 BKN028 
     FM261700 20010G17KT P6SM BKN040 BKN250 
     PROB30 2621/2701 21015G25KT 6SM -SHRA SCT030 OVC050